Time;durP1;ratioP1;P1;durP2;ratioP2;P2;SDS_P1;SDS_P2;PMS_P1;PMS_P2;Temp;Humidity;BMP_temperature;BMP_pressure;BME280_temperature;BME280_humidity;BME280_pressure;Samples;Min_cycle;Max_cycle;Signal;HPM_P1;HPM_P2
2022/08/15 00:00:34;;;;;;;3.53;3.22;;;22.00;63.00;;;;;;4982080;28;20186;-82
2022/08/15 00:03:00;;;;;;;3.40;3.10;;;22.00;63.00;;;;;;4980692;28;20022;-83
2022/08/15 00:05:26;;;;;;;3.40;3.00;;;22.00;63.10;;;;;;4997881;28;20347;-83
2022/08/15 00:07:53;;;;;;;3.38;3.08;;;22.00;63.40;;;;;;4979520;28;20088;-83
2022/08/15 00:10:21;;;;;;;3.33;3.03;;;21.90;63.20;;;;;;4978922;28;20026;-82
2022/08/15 00:12:48;;;;;;;5.28;3.13;;;21.90;63.20;;;;;;4996641;28;20353;-82
2022/08/15 00:15:17;;;;;;;6.95;3.65;;;22.00;63.00;;;;;;4997608;28;20025;-83
2022/08/15 00:17:43;;;;;;;5.28;2.80;;;21.90;63.00;;;;;;4996554;28;20493;-82
2022/08/15 00:20:10;;;;;;;3.15;2.85;;;21.90;63.10;;;;;;4996371;28;20057;-82
2022/08/15 00:22:48;;;;;;;3.75;3.03;;;21.90;63.20;;;;;;4997330;28;20076;-81
2022/08/15 00:25:15;;;;;;;3.92;2.97;;;21.90;63.20;;;;;;4997088;28;20027;-84
2022/08/15 00:27:41;;;;;;;3.35;3.00;;;21.80;63.20;;;;;;4997231;28;20037;-82
2022/08/15 00:30:08;;;;;;;5.40;3.45;;;21.80;63.50;;;;;;4997849;28;20031;-83
2022/08/15 00:32:36;;;;;;;4.07;3.22;;;21.80;63.60;;;;;;4996139;28;20430;-83
2022/08/15 00:35:35;;;;;;;3.47;2.97;;;21.70;63.60;;;;;;4996741;28;20023;-83
2022/08/15 00:37:55;;;;;;;4.68;3.47;;;21.70;63.70;;;;;;4995807;28;20088;-83
2022/08/15 00:40:24;;;;;;;3.95;3.55;;;21.70;63.80;;;;;;4979428;28;20113;-81
2022/08/15 00:42:51;;;;;;;3.63;2.97;;;21.70;63.90;;;;;;4997363;28;20023;-81
2022/08/15 00:45:19;;;;;;;4.15;2.90;;;21.60;64.10;;;;;;5007745;28;20025;-81
2022/08/15 00:48:41;;;;;;;3.75;3.45;;;21.60;64.20;;;;;;5016501;28;20033;-83
2022/08/15 00:50:31;;;;;;;3.25;2.95;;;21.60;64.40;;;;;;5016806;28;20049;-84
2022/08/15 00:52:59;;;;;;;3.25;2.95;;;21.60;64.50;;;;;;4997284;28;20022;-82
2022/08/15 00:55:27;;;;;;;3.85;3.47;;;21.60;64.60;;;;;;4993273;28;20085;-81
2022/08/15 00:57:53;;;;;;;3.05;2.55;;;21.50;64.60;;;;;;4995459;28;20022;-82
2022/08/15 01:00:25;;;;;;;2.90;2.70;;;21.50;64.60;;;;;;4995416;28;20026;-82
2022/08/15 01:02:53;;;;;;;2.97;2.78;;;21.50;64.50;;;;;;4997409;28;20022;-82
2022/08/15 01:05:20;;;;;;;3.05;2.70;;;21.50;64.60;;;;;;4995883;28;20449;-83
2022/08/15 01:07:46;;;;;;;3.20;2.97;;;21.40;64.50;;;;;;4998482;28;20038;-82
2022/08/15 01:10:13;;;;;;;3.45;3.13;;;21.50;64.70;;;;;;4980741;28;20026;-81
2022/08/15 01:12:39;;;;;;;4.75;3.10;;;21.40;64.70;;;;;;4997628;28;20508;-82
2022/08/15 01:15:10;;;;;;;3.13;2.83;;;21.40;64.70;;;;;;4996738;28;20027;-82
2022/08/15 01:17:36;;;;;;;4.18;3.15;;;21.40;64.70;;;;;;4977266;28;20433;-82
2022/08/15 01:20:11;;;;;;;3.30;3.00;;;21.40;64.70;;;;;;4994530;28;20110;-82
2022/08/15 01:22:49;;;;;;;7.53;3.22;;;21.40;64.80;;;;;;4993739;28;20031;-81
2022/08/15 01:25:25;;;;;;;3.33;2.85;;;21.40;64.90;;;;;;4995067;28;20230;-82
2022/08/15 01:28:02;;;;;;;4.00;2.80;;;21.30;64.90;;;;;;4994933;28;20481;-82
2022/08/15 01:30:38;;;;;;;2.75;2.55;;;21.30;65.10;;;;;;5013110;28;20026;-81
2022/08/15 01:33:05;;;;;;;4.53;3.00;;;21.40;65.30;;;;;;5016382;28;20082;-82
2022/08/15 01:35:31;;;;;;;3.58;3.28;;;21.30;65.30;;;;;;4998476;28;20058;-83
2022/08/15 01:37:58;;;;;;;3.25;2.85;;;21.40;65.40;;;;;;4998230;28;20010;-83
2022/08/15 01:40:36;;;;;;;2.97;2.78;;;21.40;65.40;;;;;;5005486;28;20046;-83
2022/08/15 01:43:03;;;;;;;3.78;3.42;;;21.40;65.30;;;;;;5008880;28;20102;-82
2022/08/15 01:45:30;;;;;;;3.50;3.20;;;21.30;65.40;;;;;;5013388;28;20061;-83
2022/08/15 01:48:13;;;;;;;3.60;3.30;;;21.40;65.40;;;;;;5014221;28;20074;-82
2022/08/15 01:50:49;;;;;;;4.40;3.33;;;21.40;65.50;;;;;;5014762;28;20026;-82
2022/08/15 01:53:30;;;;;;;3.72;3.25;;;21.30;65.50;;;;;;5014391;28;20029;-81
2022/08/15 01:56:05;;;;;;;5.53;3.80;;;21.40;65.50;;;;;;5012893;28;20047;-80
2022/08/15 01:58:37;;;;;;;3.97;3.25;;;21.40;65.60;;;;;;5013526;28;20098;-81
2022/08/15 02:01:09;;;;;;;3.40;3.00;;;21.40;65.50;;;;;;4995322;28;20089;-81
2022/08/15 02:03:38;;;;;;;2.92;2.72;;;21.40;65.50;;;;;;4997313;28;20037;-83
2022/08/15 02:06:25;;;;;;;2.88;2.65;;;21.30;65.50;;;;;;4995941;28;20034;-83
2022/08/15 02:08:52;;;;;;;2.58;2.38;;;21.40;65.70;;;;;;4994098;28;20041;-83
2022/08/15 02:11:20;;;;;;;3.80;2.45;;;21.30;65.70;;;;;;4994701;28;20041;-83
2022/08/15 02:13:47;;;;;;;2.72;2.53;;;21.30;65.80;;;;;;4995009;28;20022;-82
2022/08/15 02:16:15;;;;;;;3.47;3.17;;;21.30;65.90;;;;;;4995137;28;20030;-83
2022/08/15 02:18:42;;;;;;;5.20;3.15;;;21.30;66.10;;;;;;4996014;28;20089;-83
2022/08/15 02:21:08;;;;;;;3.72;3.38;;;21.30;66.30;;;;;;4995684;28;20465;-82
2022/08/15 02:23:35;;;;;;;4.47;3.13;;;21.30;66.50;;;;;;4995484;28;20026;-82
2022/08/15 02:26:01;;;;;;;3.42;3.13;;;21.30;66.40;;;;;;4976928;28;20056;-82
2022/08/15 02:28:27;;;;;;;4.40;3.33;;;21.30;66.30;;;;;;4993387;28;20030;-83
2022/08/15 02:30:53;;;;;;;4.70;3.20;;;21.30;66.40;;;;;;4995220;28;20030;-82
2022/08/15 02:33:20;;;;;;;2.80;2.60;;;21.30;66.40;;;;;;4977948;28;20121;-82
2022/08/15 02:35:45;;;;;;;2.95;2.72;;;21.30;66.40;;;;;;4998581;28;20087;-82
2022/08/15 02:38:11;;;;;;;3.25;2.95;;;21.30;66.50;;;;;;5010262;28;20033;-82
2022/08/15 02:40:37;;;;;;;2.97;2.72;;;21.30;67.10;;;;;;5009772;28;20381;-82
2022/08/15 02:43:10;;;;;;;4.45;2.65;;;21.30;66.50;;;;;;4998612;28;20116;-82
2022/08/15 02:45:39;;;;;;;3.22;2.92;;;21.30;66.60;;;;;;5004109;28;20030;-82
2022/08/15 02:48:10;;;;;;;3.70;2.75;;;21.30;66.70;;;;;;5011009;28;20155;-81
2022/08/15 02:50:38;;;;;;;2.53;2.33;;;21.20;66.70;;;;;;4986011;28;20026;-82
2022/08/15 02:53:16;;;;;;;3.38;2.95;;;21.20;66.80;;;;;;4980574;28;20061;-82
2022/08/15 02:55:44;;;;;;;3.97;2.75;;;21.30;66.80;;;;;;4999965;28;20498;-83
2022/08/15 02:58:11;;;;;;;4.97;3.15;;;21.20;66.70;;;;;;4996996;28;20046;-83
2022/08/15 03:00:38;;;;;;;3.35;3.00;;;21.20;66.70;;;;;;4996383;28;20441;-82
2022/08/15 03:03:07;;;;;;;3.85;3.45;;;21.20;66.70;;;;;;4997805;28;20022;-83
2022/08/15 03:05:37;;;;;;;3.65;2.85;;;21.20;66.70;;;;;;5000429;28;20023;-82
2022/08/15 03:08:04;;;;;;;2.80;2.60;;;21.20;66.80;;;;;;5000911;28;20481;-83
2022/08/15 03:10:29;;;;;;;3.15;2.85;;;21.20;66.90;;;;;;4999789;28;20080;-83
2022/08/15 03:13:01;;;;;;;4.35;2.47;;;21.20;66.90;;;;;;4998436;28;20101;-83
2022/08/15 03:15:48;;;;;;;4.18;3.30;;;21.20;67.70;;;;;;4996964;28;20023;-83
2022/08/15 03:18:15;;;;;;;2.72;2.53;;;21.20;67.10;;;;;;5022149;22;20058;-82
2022/08/15 03:20:42;;;;;;;6.93;2.63;;;21.20;67.10;;;;;;4987483;28;20093;-81
2022/08/15 03:23:09;;;;;;;6.50;3.30;;;21.20;67.20;;;;;;5003979;28;20022;-83
2022/08/15 03:25:39;;;;;;;3.78;3.33;;;21.20;67.30;;;;;;4987900;28;20026;-81
2022/08/15 03:28:06;;;;;;;3.20;2.88;;;21.20;67.40;;;;;;5004168;28;20079;-82
2022/08/15 03:30:32;;;;;;;3.22;2.60;;;21.20;67.40;;;;;;4999185;28;20026;-82
2022/08/15 03:32:58;;;;;;;2.83;2.47;;;21.20;67.50;;;;;;5000377;28;20026;-81
2022/08/15 03:35:28;;;;;;;4.25;2.75;;;21.10;67.50;;;;;;4982874;28;20026;-82
2022/08/15 03:37:55;;;;;;;2.55;2.35;;;21.20;67.70;;;;;;5000140;28;20507;-82
2022/08/15 03:40:21;;;;;;;2.80;2.60;;;21.20;67.70;;;;;;5002029;28;20029;-82
2022/08/15 03:43:21;;;;;;;5.93;3.10;;;21.20;67.60;;;;;;5001082;28;20019;-82
2022/08/15 03:45:52;;;;;;;3.42;2.42;;;21.20;67.70;;;;;;4998469;28;20034;-82
2022/08/15 03:48:24;;;;;;;4.05;3.03;;;21.20;67.70;;;;;;4984995;28;20053;-82
2022/08/15 03:50:52;;;;;;;2.72;2.47;;;21.20;67.70;;;;;;4985710;28;20034;-82
2022/08/15 03:53:23;;;;;;;3.30;2.72;;;21.20;67.80;;;;;;5002375;28;20086;-83
2022/08/15 03:55:49;;;;;;;2.75;2.42;;;21.20;67.90;;;;;;4985697;28;20489;-82
2022/08/15 03:58:15;;;;;;;2.83;2.50;;;21.30;68.00;;;;;;5001988;28;20054;-83
2022/08/15 04:00:45;;;;;;;3.08;2.55;;;21.30;68.10;;;;;;5000677;28;20022;-79
2022/08/15 04:03:17;;;;;;;5.53;2.95;;;21.20;68.10;;;;;;4997956;28;20022;-80
2022/08/15 04:05:49;;;;;;;5.40;2.65;;;21.20;68.10;;;;;;5000651;28;20027;-81
2022/08/15 04:08:15;;;;;;;;;;;21.30;68.00;;;;;;5003578;28;20817;-82
2022/08/15 04:10:42;;;;;;;3.58;2.25;;;21.30;68.00;;;;;;5001391;28;20356;-82
2022/08/15 04:13:08;;;;;;;3.85;2.70;;;21.30;67.90;;;;;;4999566;28;20046;-82
2022/08/15 04:15:35;;;;;;;3.53;2.70;;;21.30;67.90;;;;;;5001259;28;20030;-81
2022/08/15 04:18:00;;;;;;;3.50;2.67;;;21.30;67.90;;;;;;5002138;28;20033;-80
2022/08/15 04:20:28;;;;;;;3.90;2.58;;;21.30;68.00;;;;;;4985357;28;20026;-81
2022/08/15 04:22:54;;;;;;;5.65;2.72;;;21.30;68.10;;;;;;5014605;28;20689;-81
2022/08/15 04:25:27;;;;;;;4.40;2.65;;;21.30;68.20;;;;;;5018604;28;20026;-81
2022/08/15 04:28:05;;;;;;;3.20;2.60;;;21.30;68.50;;;;;;5018712;28;20018;-80
2022/08/15 04:30:37;;;;;;;3.30;2.33;;;21.30;68.80;;;;;;5018689;28;20057;-80
2022/08/15 04:33:30;;;;;;;4.70;2.88;;;21.30;69.20;;;;;;5018238;28;20085;-80
2022/08/15 04:36:09;;;;;;;3.95;2.90;;;21.20;69.60;;;;;;5017616;28;20030;-83
2022/08/15 04:38:42;;;;;;;5.00;2.50;;;21.20;69.90;;;;;;5019341;28;20017;-83
2022/08/15 04:41:09;;;;;;;5.75;2.30;;;21.20;70.20;;;;;;5019261;28;20038;-82
2022/08/15 04:43:37;;;;;;;2.58;2.38;;;21.10;70.30;;;;;;5002396;28;20057;-83
2022/08/15 04:46:04;;;;;;;2.85;2.38;;;21.10;70.50;;;;;;5000535;28;20027;-84
2022/08/15 04:48:31;;;;;;;3.85;2.58;;;21.10;70.60;;;;;;5004074;28;20026;-83
2022/08/15 04:50:59;;;;;;;3.80;2.40;;;21.10;70.70;;;;;;4985199;28;20026;-84
2022/08/15 04:53:28;;;;;;;5.25;2.50;;;21.10;70.80;;;;;;5004554;28;20034;-84
2022/08/15 04:55:55;;;;;;;2.55;2.30;;;21.10;70.80;;;;;;5000623;28;20027;-84
2022/08/15 04:58:22;;;;;;;2.78;2.53;;;21.10;70.80;;;;;;4998169;28;20030;-82
2022/08/15 05:01:04;;;;;;;5.30;2.20;;;21.10;70.90;;;;;;4997105;28;20034;-83
2022/08/15 05:03:31;;;;;;;3.30;3.00;;;21.10;71.20;;;;;;4979267;28;20030;-84
2022/08/15 05:06:01;;;;;;;2.50;2.30;;;21.10;71.40;;;;;;4996698;28;20061;-82
2022/08/15 05:08:28;;;;;;;3.55;2.33;;;21.10;71.90;;;;;;4980280;28;20564;-84
2022/08/15 05:11:02;;;;;;;2.67;2.05;;;21.00;72.30;;;;;;4982911;28;20030;-84
2022/08/15 05:13:32;;;;;;;2.65;2.30;;;21.00;72.70;;;;;;4999634;28;20543;-84
2022/08/15 05:15:58;;;;;;;9.10;3.13;;;21.00;72.90;;;;;;5000272;28;20413;-84
2022/08/15 05:18:25;;;;;;;3.17;2.60;;;21.00;73.40;;;;;;5001770;28;20034;-84
2022/08/15 05:20:55;;;;;;;6.22;3.05;;;21.00;73.60;;;;;;4985164;28;20026;-84
2022/08/15 05:23:22;;;;;;;3.13;2.00;;;21.00;74.00;;;;;;4987969;28;20436;-84
2022/08/15 05:25:54;;;;;;;2.72;2.20;;;21.00;74.10;;;;;;5001233;28;20047;-85
2022/08/15 05:28:20;;;;;;;6.15;2.80;;;21.00;74.40;;;;;;4988344;28;20099;-84
2022/08/15 05:30:48;;;;;;;3.22;2.92;;;21.10;74.30;;;;;;5016490;28;20053;-84
2022/08/15 05:33:17;;;;;;;2.45;2.25;;;21.10;74.30;;;;;;5011331;28;20057;-84
2022/08/15 05:35:47;;;;;;;3.92;2.88;;;21.30;74.10;;;;;;4996901;28;20053;-83
2022/08/15 05:38:22;;;;;;;5.28;2.33;;;21.40;73.80;;;;;;5000814;28;20042;-81
2022/08/15 05:40:53;;;;;;;4.60;2.42;;;21.40;73.70;;;;;;5003861;28;20061;-82
2022/08/15 05:43:42;;;;;;;;;;;21.50;73.40;;;;;;5005765;28;20018;-83
2022/08/15 05:46:24;;;;;;;3.83;2.45;;;21.50;72.90;;;;;;5000606;28;19912;-84
2022/08/15 05:49:02;;;;;;;3.30;2.30;;;21.60;72.70;;;;;;5004001;28;20396;-82
2022/08/15 05:51:46;;;;;;;2.35;2.05;;;21.60;72.70;;;;;;5006489;28;20280;-84
2022/08/15 05:54:32;;;;;;;2.40;2.15;;;21.60;72.70;;;;;;5008302;28;20019;-84
2022/08/15 05:57:07;;;;;;;2.17;1.92;;;21.60;72.90;;;;;;5007878;28;20023;-84
2022/08/15 05:59:40;;;;;;;4.80;2.25;;;21.60;73.10;;;;;;5013755;28;20022;-85
2022/08/15 06:02:18;;;;;;;2.50;1.75;;;21.60;72.80;;;;;;5000725;28;20126;-83
2022/08/15 06:04:55;;;;;;;3.33;2.28;;;21.60;73.20;;;;;;5008278;28;20057;-82
2022/08/15 06:07:22;;;;;;;3.90;1.85;;;21.60;73.20;;;;;;5008387;28;20039;-83
2022/08/15 06:10:23;;;;;;;4.82;2.67;;;21.60;73.20;;;;;;4987825;28;20094;-82
2022/08/15 06:12:51;;;;;;;2.72;2.03;;;21.60;73.20;;;;;;5010062;28;20022;-84
2022/08/15 06:15:27;;;;;;;4.18;1.88;;;21.60;73.40;;;;;;4990754;28;20042;-83
2022/08/15 06:17:56;;;;;;;2.13;1.70;;;21.80;72.70;;;;;;4980773;28;20065;-83
2022/08/15 06:20:47;;;;;;;1.90;1.80;;;22.10;71.40;;;;;;5010118;28;20014;-83
2022/08/15 06:23:37;;;;;;;2.35;2.10;;;22.90;69.60;;;;;;4991566;28;20026;-85
2022/08/15 06:26:29;;;;;;;3.15;1.77;;;23.30;66.50;;;;;;4989146;28;20030;-82
2022/08/15 06:29:16;;;;;;;2.67;1.98;;;23.20;66.10;;;;;;5005318;28;20243;-81
2022/08/15 06:31:57;;;;;;;3.03;1.90;;;22.80;66.20;;;;;;5000795;28;20027;-82
2022/08/15 06:34:47;;;;;;;2.23;2.03;;;22.40;67.70;;;;;;5003847;28;20082;-83
2022/08/15 06:37:28;;;;;;;2.55;1.92;;;22.10;68.50;;;;;;5010463;28;20258;-83
2022/08/15 06:40:01;;;;;;;1.83;1.67;;;21.90;69.30;;;;;;5009375;28;20026;-81
2022/08/15 06:42:39;;;;;;;2.38;1.50;;;21.70;70.00;;;;;;4993536;28;20041;-81
2022/08/15 06:45:11;;;;;;;2.50;2.05;;;21.70;70.60;;;;;;5010838;28;20066;-82
2022/08/15 06:47:37;;;;;;;4.18;2.05;;;21.60;69.80;;;;;;5007480;28;20082;-83
2022/08/15 06:50:13;;;;;;;1.73;1.63;;;21.50;70.50;;;;;;5011480;28;20050;-82
2022/08/15 06:52:43;;;;;;;2.05;1.83;;;21.50;71.40;;;;;;5007866;28;20097;-82
2022/08/15 06:55:09;;;;;;;3.72;1.75;;;21.50;70.90;;;;;;5008151;28;20019;-82
2022/08/15 06:58:00;;;;;;;2.28;1.23;;;21.40;71.30;;;;;;5007440;28;20033;-83
2022/08/15 07:00:33;;;;;;;1.80;1.70;;;21.40;71.80;;;;;;5006680;28;20026;-82
2022/08/15 07:03:30;;;;;;;2.22;2.00;;;21.40;71.90;;;;;;5004754;28;20026;-82
2022/08/15 07:05:57;;;;;;;2.60;1.52;;;21.40;72.00;;;;;;5015624;28;20019;-85
2022/08/15 07:08:55;;;;;;;1.70;1.60;;;21.40;72.20;;;;;;4993856;28;20085;-84
2022/08/15 07:11:42;;;;;;;1.63;1.52;;;21.40;72.50;;;;;;5011721;28;20022;-83
2022/08/15 07:14:24;;;;;;;6.03;2.38;;;21.40;72.50;;;;;;5011727;28;20022;-83
2022/08/15 07:17:00;;;;;;;2.15;1.65;;;21.30;72.60;;;;;;4993695;28;20046;-85
2022/08/15 07:19:26;;;;;;;2.78;1.65;;;21.30;72.80;;;;;;5005991;28;20027;-82
2022/08/15 07:21:52;;;;;;;1.85;1.48;;;21.30;73.10;;;;;;5009548;28;20028;-82
2022/08/15 07:24:18;;;;;;;1.77;1.50;;;21.30;73.00;;;;;;4993091;28;20067;-84
2022/08/15 07:27:09;;;;;;;2.72;1.75;;;21.30;73.20;;;;;;4993269;28;20512;-84
2022/08/15 07:29:38;;;;;;;1.53;1.43;;;21.30;73.40;;;;;;4992680;28;20026;-83
2022/08/15 07:32:44;;;;;;;3.03;1.92;;;21.30;73.30;;;;;;5011978;28;20015;-83
2022/08/15 07:35:12;;;;;;;1.48;1.38;;;21.50;72.70;;;;;;5011515;28;20022;-84
2022/08/15 07:37:51;;;;;;;1.95;1.67;;;21.50;72.50;;;;;;4992533;28;20054;-82
2022/08/15 07:40:17;;;;;;;1.90;1.70;;;21.70;72.20;;;;;;5009596;28;20085;-82
2022/08/15 07:42:44;;;;;;;1.75;1.38;;;21.80;70.80;;;;;;4991548;28;20026;-83
2022/08/15 07:45:25;;;;;;;2.15;1.70;;;22.00;71.00;;;;;;4992601;28;20026;-82
2022/08/15 07:47:57;;;;;;;4.38;1.67;;;22.30;70.00;;;;;;4986053;28;20117;-83
2022/08/15 07:50:29;;;;;;;1.40;1.40;;;22.70;69.20;;;;;;4988343;28;20030;-83
2022/08/15 07:52:56;;;;;;;;;;;23.00;68.00;;;;;;4993727;28;20018;-81
2022/08/15 07:55:25;;;;;;;1.98;1.60;;;23.30;66.70;;;;;;4992597;28;19913;-83
2022/08/15 07:58:13;;;;;;;1.55;1.30;;;23.50;66.10;;;;;;4993330;28;20109;-84
2022/08/15 08:00:40;;;;;;;3.15;1.75;;;23.60;65.10;;;;;;5010950;28;20409;-83
2022/08/15 08:03:15;;;;;;;1.50;1.40;;;23.60;64.40;;;;;;4992984;28;20548;-83
2022/08/15 08:05:47;;;;;;;2.53;1.60;;;23.70;64.60;;;;;;5013164;28;20023;-84
2022/08/15 08:08:13;;;;;;;1.58;1.48;;;23.70;64.40;;;;;;4997558;28;20057;-81
2022/08/15 08:10:42;;;;;;;2.90;1.83;;;23.60;65.10;;;;;;5006997;28;20034;-81
2022/08/15 08:13:53;;;;;;;2.92;1.20;;;23.70;65.50;;;;;;5010412;28;20022;-82
2022/08/15 08:16:29;;;;;;;3.03;1.77;;;24.10;64.90;;;;;;4993037;28;20042;-82
2022/08/15 08:19:22;;;;;;;3.13;1.40;;;24.30;64.00;;;;;;5015396;28;20032;-84
2022/08/15 08:22:11;;;;;;;1.60;1.50;;;24.40;63.30;;;;;;5018279;28;20042;-81
2022/08/15 08:25:02;;;;;;;1.55;1.45;;;24.60;63.20;;;;;;5019167;28;20003;-83
2022/08/15 08:27:49;;;;;;;2.00;1.80;;;24.90;62.30;;;;;;5017900;28;20022;-84
2022/08/15 08:30:21;;;;;;;2.40;2.08;;;25.10;61.70;;;;;;5009251;28;20037;-83
2022/08/15 08:33:16;;;;;;;7.95;2.17;;;25.50;60.60;;;;;;5010246;28;20030;-83
2022/08/15 08:35:54;;;;;;;2.15;1.95;;;25.60;59.40;;;;;;5013401;28;20058;-84
2022/08/15 08:38:35;;;;;;;1.73;1.60;;;25.70;59.10;;;;;;5012592;28;20034;-83
2022/08/15 08:41:24;;;;;;;;;;;25.80;59.00;;;;;;5009234;28;20026;-83
2022/08/15 08:44:10;;;;;;;1.95;1.85;;;25.90;58.50;;;;;;5009873;28;19916;-84
2022/08/15 08:46:46;;;;;;;2.17;1.65;;;26.00;58.30;;;;;;4992605;28;20045;-84
2022/08/15 08:49:21;;;;;;;1.73;1.60;;;25.90;58.30;;;;;;5009551;28;20408;-81
2022/08/15 08:52:14;;;;;;;2.47;1.58;;;25.80;58.40;;;;;;5009298;28;20026;-82
2022/08/15 08:55:05;;;;;;;2.58;1.85;;;25.60;58.30;;;;;;5010384;28;20026;-83
2022/08/15 08:58:12;;;;;;;1.75;1.65;;;25.40;59.20;;;;;;4994458;28;20448;-83
2022/08/15 09:00:45;;;;;;;2.10;1.55;;;25.30;59.90;;;;;;5008533;28;20086;-83
2022/08/15 09:03:34;;;;;;;2.05;1.95;;;25.20;59.90;;;;;;5010035;28;20026;-84
2022/08/15 09:06:01;;;;;;;2.78;1.77;;;25.00;60.30;;;;;;5010193;28;20452;-82
2022/08/15 09:08:51;;;;;;;3.13;1.98;;;24.80;60.20;;;;;;5011438;28;20026;-82
2022/08/15 09:11:27;;;;;;;2.17;1.98;;;24.80;60.90;;;;;;5010956;28;20029;-83
2022/08/15 09:13:57;;;;;;;2.55;2.35;;;24.60;61.20;;;;;;5010471;28;20021;-82
2022/08/15 09:16:32;;;;;;;2.08;1.90;;;24.60;61.20;;;;;;5008843;28;20022;-84
2022/08/15 09:19:06;;;;;;;1.95;1.80;;;24.50;61.40;;;;;;5018050;23;20043;-85
2022/08/15 09:21:34;;;;;;;2.88;2.58;;;24.30;61.40;;;;;;5009086;28;20054;-86
2022/08/15 09:24:00;;;;;;;2.17;1.90;;;24.00;62.30;;;;;;4995804;28;20022;-86
2022/08/15 09:26:38;;;;;;;1.90;1.65;;;23.90;62.80;;;;;;5010795;28;20104;-85
2022/08/15 09:29:24;;;;;;;3.90;2.20;;;23.80;63.20;;;;;;4995102;28;20026;-86
2022/08/15 09:32:04;;;;;;;2.42;1.77;;;23.70;63.10;;;;;;4994783;28;20026;-86
2022/08/15 09:34:51;;;;;;;2.13;1.85;;;23.70;62.70;;;;;;4997367;28;20022;-85
2022/08/15 09:37:27;;;;;;;1.92;1.83;;;23.60;63.30;;;;;;4996910;28;20496;-86
2022/08/15 09:40:08;;;;;;;5.20;1.73;;;23.70;63.10;;;;;;4998391;28;20065;-85
2022/08/15 09:46:25;;;;;;;2.08;1.55;;;23.90;62.90;;;;;;4997522;28;20033;-85
2022/08/15 09:49:10;;;;;;;2.38;2.17;;;24.20;62.70;;;;;;5006426;28;20093;-86
2022/08/15 09:52:06;;;;;;;2.00;1.73;;;24.60;61.70;;;;;;4985824;28;20030;-86
2022/08/15 09:54:42;;;;;;;2.95;1.80;;;24.90;60.30;;;;;;5003963;28;20480;-85
2022/08/15 09:57:22;;;;;;;1.77;1.67;;;25.10;60.00;;;;;;5001798;28;20548;-85
2022/08/15 10:00:15;;;;;;;4.97;2.40;;;25.40;59.10;;;;;;4999089;28;20034;-86
2022/08/15 10:02:41;;;;;;;1.83;1.73;;;25.60;59.20;;;;;;4998087;28;20036;-86
2022/08/15 10:05:33;;;;;;;2.13;1.95;;;25.80;58.60;;;;;;4998684;28;20061;-86
2022/08/15 10:08:01;;;;;;;4.25;1.80;;;25.90;58.50;;;;;;4997887;28;20110;-86
2022/08/15 10:10:34;;;;;;;2.13;1.48;;;26.00;57.80;;;;;;4996627;28;20109;-86
2022/08/15 10:13:26;;;;;;;3.42;2.00;;;26.20;57.80;;;;;;4997130;28;20294;-86
2022/08/15 10:15:53;;;;;;;1.77;1.67;;;26.50;56.40;;;;;;4996409;28;20396;-86
2022/08/15 10:18:22;;;;;;;1.80;1.50;;;26.80;56.30;;;;;;5004216;28;20072;-86
2022/08/15 10:20:56;;;;;;;1.75;1.65;;;27.00;55.40;;;;;;5016227;28;20080;-85
2022/08/15 10:23:53;;;;;;;1.92;1.70;;;27.10;55.30;;;;;;5014226;28;20022;-86
2022/08/15 10:26:30;;;;;;;1.60;1.52;;;27.20;55.10;;;;;;5014779;28;20097;-86
2022/08/15 10:29:25;;;;;;;1.90;1.80;;;27.40;55.00;;;;;;5016037;28;20029;-86
2022/08/15 10:31:54;;;;;;;1.83;1.48;;;27.70;53.30;;;;;;5003532;28;20356;-86
2022/08/15 10:34:39;;;;;;;2.17;1.95;;;27.80;53.40;;;;;;5014479;28;20093;-84
2022/08/15 10:37:19;;;;;;;1.80;1.70;;;27.80;53.10;;;;;;5013907;28;20092;-84
2022/08/15 10:40:11;;;;;;;2.28;2.08;;;28.00;53.60;;;;;;5014281;28;20121;-84
2022/08/15 10:42:44;;;;;;;3.13;1.83;;;28.90;52.40;;;;;;5013982;28;20026;-85
2022/08/15 10:45:30;;;;;;;1.90;1.80;;;29.30;51.40;;;;;;5015326;28;20061;-85
2022/08/15 10:48:34;;;;;;;1.80;1.70;;;29.00;50.60;;;;;;5002886;28;20052;-86
2022/08/15 10:51:26;;;;;;;3.22;1.90;;;28.50;52.10;;;;;;4947518;28;20024;-86
2022/08/15 10:54:13;;;;;;;1.70;1.60;;;28.60;51.70;;;;;;5015416;28;20030;-86
2022/08/15 10:56:40;;;;;;;1.60;1.50;;;28.80;51.80;;;;;;5041572;28;20018;-85
2022/08/15 10:59:10;;;;;;;2.67;1.50;;;29.40;51.10;;;;;;5039461;28;20025;-84
2022/08/15 11:01:44;;;;;;;1.75;1.60;;;29.90;49.60;;;;;;5038155;28;20030;-85
2022/08/15 11:04:26;;;;;;;1.40;1.30;;;30.20;49.00;;;;;;5021379;28;20053;-85
2022/08/15 11:06:53;;;;;;;1.58;1.45;;;30.30;48.70;;;;;;5016377;28;20026;-84
2022/08/15 11:09:21;;;;;;;1.92;1.80;;;30.60;48.00;;;;;;5017648;28;20069;-84
2022/08/15 11:11:52;;;;;;;2.28;1.80;;;30.80;47.40;;;;;;5029499;28;20416;-84
2022/08/15 11:14:29;;;;;;;2.00;1.80;;;30.80;47.20;;;;;;5035185;28;20029;-84
2022/08/15 11:16:58;;;;;;;2.10;2.00;;;30.80;47.10;;;;;;5019470;28;20073;-86
2022/08/15 11:19:38;;;;;;;2.40;1.52;;;30.60;46.80;;;;;;5022875;28;20052;-85
2022/08/15 11:22:08;;;;;;;1.48;1.48;;;30.20;47.00;;;;;;5035971;28;20060;-86
2022/08/15 11:24:39;;;;;;;1.92;1.80;;;30.00;47.60;;;;;;5026614;28;20480;-85
2022/08/15 11:27:23;;;;;;;;;;;29.80;48.30;;;;;;5018306;28;20099;-86
2022/08/15 11:29:51;;;;;;;1.80;1.70;;;29.70;48.70;;;;;;5020761;28;19909;-85
2022/08/15 11:32:28;;;;;;;3.33;1.70;;;29.70;46.90;;;;;;5017969;28;20534;-85
2022/08/15 11:35:50;;;;;;;2.15;2.05;;;29.50;48.20;;;;;;5018117;28;20143;-85
2022/08/15 11:42:04;;;;;;;1.88;1.77;;;29.20;49.10;;;;;;4946706;28;20077;-85
2022/08/15 11:44:59;;;;;;;2.50;1.80;;;29.30;49.10;;;;;;5009822;28;20535;-85
2022/08/15 11:47:31;;;;;;;2.22;1.50;;;29.60;48.10;;;;;;5004816;28;20045;-85
2022/08/15 11:50:05;;;;;;;2.55;1.33;;;29.80;47.60;;;;;;5020154;28;20040;-85
2022/08/15 11:52:50;;;;;;;1.95;1.75;;;29.50;47.40;;;;;;5018982;28;20373;-85
2022/08/15 11:55:23;;;;;;;1.67;1.58;;;28.90;48.80;;;;;;4996166;28;20026;-85
2022/08/15 11:57:53;;;;;;;1.52;1.42;;;28.50;49.30;;;;;;5002283;28;20022;-86
2022/08/15 12:00:39;;;;;;;3.28;1.30;;;28.30;49.70;;;;;;5019975;28;20390;-85
2022/08/15 12:03:21;;;;;;;4.00;1.70;;;28.20;49.50;;;;;;5017478;28;20076;-85
2022/08/15 12:05:51;;;;;;;1.77;1.63;;;28.10;50.00;;;;;;5017749;28;20030;-85
2022/08/15 12:08:29;;;;;;;1.60;1.50;;;28.20;50.20;;;;;;5019322;28;20466;-85
2022/08/15 12:11:14;;;;;;;3.60;1.55;;;28.20;50.10;;;;;;5022315;28;20018;-85
2022/08/15 12:14:01;;;;;;;1.55;1.45;;;28.20;50.10;;;;;;5035741;28;20038;-86
2022/08/15 12:16:31;;;;;;;2.53;1.70;;;28.00;50.30;;;;;;5037224;28;20033;-86
2022/08/15 12:19:19;;;;;;;6.15;2.08;;;28.00;50.30;;;;;;5036628;28;20069;-85
2022/08/15 12:21:49;;;;;;;2.13;1.75;;;28.00;49.90;;;;;;5036548;28;20033;-86
2022/08/15 12:24:22;;;;;;;1.83;1.73;;;27.90;50.30;;;;;;5028319;28;20301;-86
2022/08/15 12:26:49;;;;;;;1.60;1.50;;;27.90;50.40;;;;;;5017962;28;20021;-87
2022/08/15 12:29:17;;;;;;;2.05;1.95;;;27.80;50.60;;;;;;5018482;28;20039;-86
2022/08/15 12:31:42;;;;;;;1.67;1.58;;;27.70;50.60;;;;;;5009265;28;20026;-87
2022/08/15 12:34:15;;;;;;;1.92;1.75;;;27.80;50.60;;;;;;5000078;28;20073;-89
2022/08/15 12:36:42;;;;;;;2.22;1.50;;;27.80;50.60;;;;;;4997458;28;20023;-89
2022/08/15 12:39:09;;;;;;;3.25;1.70;;;28.10;50.30;;;;;;4995504;28;20143;-88
2022/08/15 12:41:35;;;;;;;1.60;1.42;;;28.40;49.90;;;;;;5005827;28;20033;-88
2022/08/15 12:44:04;;;;;;;1.50;1.40;;;28.90;49.50;;;;;;5017218;28;20021;-88
2022/08/15 12:46:29;;;;;;;1.60;1.50;;;29.50;48.70;;;;;;5016352;28;20076;-88
2022/08/15 12:48:55;;;;;;;2.00;1.90;;;30.00;47.80;;;;;;5011931;28;20030;-88
2022/08/15 12:51:21;;;;;;;1.48;1.38;;;30.30;46.40;;;;;;5015140;28;20022;-86
2022/08/15 12:53:47;;;;;;;1.55;1.45;;;30.50;46.30;;;;;;5014537;28;20026;-86
2022/08/15 12:56:19;;;;;;;1.80;1.70;;;30.70;45.90;;;;;;5013910;28;20444;-87
2022/08/15 12:58:45;;;;;;;1.60;1.50;;;30.80;45.60;;;;;;5012478;28;20026;-87
2022/08/15 13:01:11;;;;;;;1.92;1.75;;;30.60;45.20;;;;;;5016114;28;20025;-87
2022/08/15 13:03:42;;;;;;;2.20;1.70;;;30.70;44.80;;;;;;5015760;28;20048;-87
2022/08/15 13:06:24;;;;;;;1.50;1.40;;;30.60;44.20;;;;;;5017003;28;20041;-86
2022/08/15 13:08:50;;;;;;;2.10;1.38;;;30.50;45.20;;;;;;5014518;28;20033;-86
2022/08/15 13:11:17;;;;;;;2.63;1.80;;;30.50;45.60;;;;;;5012327;28;20029;-85
2022/08/15 13:13:43;;;;;;;4.47;1.92;;;;;;;;;;5015015;28;20032;-86
2022/08/15 13:16:09;;;;;;;1.70;1.60;;;;;;;;;;5016232;28;20017;-86
2022/08/15 13:18:36;;;;;;;1.70;1.60;;;;;;;;;;5015874;28;20072;-86
2022/08/15 13:23:51;;;;;;;2.35;1.45;;;29.70;46.00;;;;;;5016261;28;20052;-87
2022/08/15 13:26:18;;;;;;;2.33;2.08;;;29.80;46.10;;;;;;5015587;28;20048;-88
2022/08/15 13:28:46;;;;;;;1.60;1.50;;;30.00;45.90;;;;;;5016672;28;20040;-86
2022/08/15 13:31:18;;;;;;;1.95;1.55;;;30.00;44.80;;;;;;5016336;28;20045;-86
2022/08/15 13:33:46;;;;;;;2.67;1.77;;;30.10;44.40;;;;;;5029557;28;20010;-85